KDEN

Denver International Airport

Denver, Colorado, USA
METAR KDEN 221953Z 06006G16KT 10SM SCT100 SCT150 BKN220 23/M04 A3015 RMK AO2 SLP152 T02281039
Observed Flight Rules
Oct-22 @ 19:53 UTC (an hour ago) Visual Flight Rules
Wind Visibility Clouds
60° at 6 knots
 Gusting to 16 knots
10 miles
  • Scattered at 10,000' AGL
  • Scattered at 15,000' AGL
  • Broken at 22,000' AGL
Temperatures Readings
Current 23°C / 73°F
Dewpoint -4°C / 25°F
Humidity 16%
Altimeter 30.15" Hg
Pressure 1015.2 hPa
Elevation 1640
METAR KDEN 221953Z 06006G16KT 10SM SCT100 SCT150 BKN220 23/M04 A3015 RMK AO2 SLP152 T02281039
Observed Flight Rules
Oct-22 @ 19:53 UTC
(an hour ago)
VFR
Wind Visibility
60° at 6 knots
 Gusting to 16 knots
10 miles
Clouds
  • Scattered at 10,000' AGL
  • Scattered at 15,000' AGL
  • Broken at 22,000' AGL
Temperature Dewpoint
23°C / 73°F -4°C / 25°F
Humidity Altimeter Pressure
16% 30.15" Hg 1015.2 hPa